Time;durP1;ratioP1;P1;durP2;ratioP2;P2;SDS_P1;SDS_P2;PMS_P1;PMS_P2;Temp;Humidity;BMP_temperature;BMP_pressure;BME280_temperature;BME280_humidity;BME280_pressure;Samples;Min_cycle;Max_cycle;Signal;HPM_P1;HPM_P2
2022/08/11 00:02:33;;;;;;;3.67;3.37;;;20.10;53.90;;;;;;5031508;28;20557;-59
2022/08/11 00:05:09;;;;;;;3.07;2.87;;;20.20;53.70;;;;;;5032321;28;20459;-61
2022/08/11 00:07:50;;;;;;;4.00;3.60;;;20.20;54.00;;;;;;5037192;28;20432;-60
2022/08/11 00:10:20;;;;;;;3.70;3.40;;;20.10;54.80;;;;;;5033069;28;20441;-61
2022/08/11 00:12:55;;;;;;;5.53;3.73;;;20.10;54.70;;;;;;5037737;28;20429;-61
2022/08/11 00:15:27;;;;;;;7.60;3.40;;;20.10;54.20;;;;;;5034390;28;20513;-61
2022/08/11 00:17:58;;;;;;;3.30;3.00;;;20.10;54.40;;;;;;5033689;28;20557;-61
2022/08/11 00:20:31;;;;;;;3.37;3.17;;;20.10;54.10;;;;;;5019778;28;20428;-61
2022/08/11 00:23:05;;;;;;;2.87;2.67;;;20.20;53.90;;;;;;5029834;28;20512;-58
2022/08/11 00:25:36;;;;;;;5.30;3.40;;;20.10;54.10;;;;;;5043211;28;20458;-60
2022/08/11 00:28:01;;;;;;;3.50;3.20;;;20.10;54.20;;;;;;5036033;28;20947;-57
2022/08/11 00:30:38;;;;;;;2.83;2.63;;;20.10;55.00;;;;;;5027358;28;20449;-56
2022/08/11 00:33:04;;;;;;;3.23;3.03;;;19.90;55.50;;;;;;5038432;28;20181;-60
2022/08/11 00:35:32;;;;;;;5.50;3.13;;;19.90;55.50;;;;;;5033553;28;20464;-58
2022/08/11 00:37:58;;;;;;;4.13;3.73;;;19.80;55.40;;;;;;5041471;28;20472;-60
2022/08/11 00:40:33;;;;;;;3.63;3.33;;;19.90;54.70;;;;;;5026933;28;20453;-58
2022/08/11 00:43:22;;;;;;;3.40;3.10;;;20.00;54.90;;;;;;5034851;28;20469;-57
2022/08/11 00:46:06;;;;;;;3.17;2.97;;;20.00;54.20;;;;;;5035496;28;20440;-57
2022/08/11 00:48:58;;;;;;;4.07;3.77;;;20.10;54.40;;;;;;5033135;28;20449;-59
2022/08/11 00:51:50;;;;;;;3.03;2.77;;;20.00;55.10;;;;;;5030400;28;20437;-55
2022/08/11 00:54:37;;;;;;;3.70;3.40;;;20.00;54.80;;;;;;5058299;23;20492;-61
2022/08/11 00:57:25;;;;;;;4.60;3.23;;;20.00;54.60;;;;;;5035377;28;20436;-62
2022/08/11 01:00:09;;;;;;;4.03;3.73;;;20.00;54.60;;;;;;5044874;28;20435;-62
2022/08/11 01:02:54;;;;;;;3.57;3.27;;;20.00;54.70;;;;;;5050556;28;20543;-62
2022/08/11 01:05:45;;;;;;;5.17;3.50;;;20.00;55.00;;;;;;5032285;28;20511;-62
2022/08/11 01:08:48;;;;;;;3.83;3.53;;;20.00;54.90;;;;;;5032008;28;20437;-63
2022/08/11 01:11:32;;;;;;;3.43;3.13;;;20.00;54.90;;;;;;5025947;28;20835;-62
2022/08/11 01:14:28;;;;;;;3.90;3.53;;;20.00;55.30;;;;;;5030980;28;20463;-62
2022/08/11 01:17:09;;;;;;;4.73;4.23;;;20.00;55.30;;;;;;5029956;28;20471;-62
2022/08/11 01:19:56;;;;;;;3.50;3.00;;;20.00;55.40;;;;;;5023942;28;20481;-62
2022/08/11 01:22:59;;;;;;;3.43;3.23;;;20.00;55.60;;;;;;5029444;28;21085;-61
2022/08/11 01:25:46;;;;;;;4.63;3.47;;;20.00;55.80;;;;;;5023210;28;20954;-62
2022/08/11 01:28:48;;;;;;;10.63;3.70;;;20.00;56.00;;;;;;5018905;28;20472;-62
2022/08/11 01:31:35;;;;;;;3.93;3.73;;;19.90;56.10;;;;;;5027207;28;20476;-62
2022/08/11 01:34:25;;;;;;;3.87;3.67;;;19.90;56.40;;;;;;5028492;28;20814;-62
2022/08/11 01:37:15;;;;;;;3.60;3.23;;;19.80;56.60;;;;;;5028399;28;20445;-62
2022/08/11 01:40:22;;;;;;;3.60;3.40;;;19.80;56.70;;;;;;5022822;28;20453;-62
2022/08/11 01:46:19;;;;;;;4.13;3.50;;;19.80;57.10;;;;;;5024583;28;20787;-62
2022/08/11 01:49:23;;;;;;;4.10;3.80;;;19.70;57.40;;;;;;5031073;28;20432;-61
2022/08/11 01:52:21;;;;;;;4.20;3.90;;;19.70;57.60;;;;;;5031385;28;20802;-62
2022/08/11 01:55:13;;;;;;;3.63;3.33;;;19.70;57.80;;;;;;5023256;28;20476;-62
2022/08/11 01:57:54;;;;;;;3.90;3.60;;;19.70;58.10;;;;;;5021446;28;20442;-62
2022/08/11 02:00:25;;;;;;;4.17;3.77;;;19.70;58.20;;;;;;5017653;28;20444;-61
2022/08/11 02:03:09;;;;;;;3.83;3.33;;;19.70;58.50;;;;;;5025358;28;20560;-62
2022/08/11 02:06:53;;;;;;;4.43;4.10;;;19.80;58.50;;;;;;5022911;28;20458;-62
2022/08/11 02:09:04;;;;;;;3.73;3.53;;;19.80;58.70;;;;;;5019747;28;20456;-61
2022/08/11 02:11:32;;;;;;;7.50;4.20;;;19.70;59.00;;;;;;5026325;28;20440;-62
2022/08/11 02:14:33;;;;;;;4.53;4.20;;;19.70;59.20;;;;;;5029182;28;20559;-62
2022/08/11 02:17:32;;;;;;;4.07;3.77;;;19.70;59.50;;;;;;5027100;28;20452;-61
2022/08/11 02:23:38;;;;;;;4.10;3.90;;;19.60;60.70;;;;;;5025456;28;20459;-62
2022/08/11 02:26:24;;;;;;;5.80;4.00;;;19.60;60.50;;;;;;5022126;28;20961;-62
2022/08/11 02:29:31;;;;;;;4.30;4.00;;;19.60;60.90;;;;;;5025555;28;20448;-62
2022/08/11 02:35:22;;;;;;;4.20;3.90;;;19.50;61.80;;;;;;5024412;28;20455;-62
2022/08/11 02:37:52;;;;;;;4.07;3.77;;;19.50;62.00;;;;;;5023011;28;20929;-61
2022/08/11 02:40:19;;;;;;;4.40;4.00;;;19.40;62.90;;;;;;5020270;28;20501;-62
2022/08/11 02:42:45;;;;;;;4.50;3.87;;;19.30;66.10;;;;;;5027955;28;20859;-62
2022/08/11 02:45:32;;;;;;;4.20;3.90;;;19.00;69.00;;;;;;5030603;28;20452;-62
2022/08/11 02:51:28;;;;;;;4.37;3.97;;;18.70;72.60;;;;;;5022856;28;20472;-62
2022/08/11 02:54:16;;;;;;;4.50;4.10;;;18.60;74.80;;;;;;5031101;28;21112;-62
2022/08/11 02:57:00;;;;;;;3.93;3.63;;;18.60;74.60;;;;;;5030086;28;20447;-60
2022/08/11 02:59:51;;;;;;;4.37;4.07;;;18.50;75.70;;;;;;5022902;28;20531;-61
2022/08/11 03:02:31;;;;;;;4.30;4.00;;;18.40;77.10;;;;;;5024892;28;20467;-62
2022/08/11 03:05:10;;;;;;;7.07;6.00;;;18.30;81.10;;;;;;5029600;28;20479;-62
2022/08/11 03:07:39;;;;;;;6.13;4.70;;;18.10;92.90;;;;;;5031049;28;20440;-62
2022/08/11 03:10:34;;;;;;;4.40;4.10;;;17.90;95.20;;;;;;5029025;28;20449;-61
2022/08/11 03:19:12;;;;;;;7.27;6.63;;;17.70;99.90;;;;;;5020492;28;21021;-62
2022/08/11 03:21:48;;;;;;;5.13;4.63;;;17.70;99.60;;;;;;5027397;28;20945;-61
2022/08/11 03:24:32;;;;;;;4.33;4.03;;;17.60;99.20;;;;;;5024054;28;20554;-61
2022/08/11 03:27:29;;;;;;;5.20;4.10;;;17.60;98.90;;;;;;5027632;28;20448;-62
2022/08/11 03:30:18;;;;;;;4.40;4.10;;;17.60;98.20;;;;;;5022292;28;20545;-62
2022/08/11 03:36:06;;;;;;;5.57;4.80;;;17.50;99.20;;;;;;5029306;28;20471;-62
2022/08/11 03:38:43;;;;;;;5.40;3.77;;;17.50;99.80;;;;;;5029194;28;20452;-61
2022/08/11 03:41:43;;;;;;;4.77;4.37;;;17.40;99.90;;;;;;5041292;28;20989;-61
2022/08/11 03:44:24;;;;;;;4.87;4.50;;;17.40;99.90;;;;;;5027209;28;20812;-61
2022/08/11 03:47:33;;;;;;;5.43;5.03;;;17.20;99.90;;;;;;5026834;28;20526;-61
2022/08/11 03:50:22;;;;;;;5.43;4.93;;;17.10;99.90;;;;;;5030973;28;20449;-61
2022/08/11 03:53:17;;;;;;;4.03;3.83;;;17.00;99.90;;;;;;5039635;28;20471;-62
2022/08/11 03:56:01;;;;;;;5.20;4.60;;;17.00;99.90;;;;;;5032969;28;20476;-62
2022/08/11 03:58:57;;;;;;;5.70;4.60;;;16.90;99.90;;;;;;5042915;28;20776;-63
2022/08/11 04:01:59;;;;;;;5.60;4.43;;;16.90;99.90;;;;;;5027926;28;20435;-62
2022/08/11 04:05:06;;;;;;;4.63;4.20;;;16.90;99.90;;;;;;5030646;28;20506;-63
2022/08/11 04:07:53;;;;;;;5.27;4.87;;;16.90;99.90;;;;;;5027706;28;20810;-61
2022/08/11 04:10:39;;;;;;;5.10;4.60;;;16.80;99.90;;;;;;5033046;28;20436;-61
2022/08/11 04:13:37;;;;;;;5.47;4.87;;;16.80;99.90;;;;;;5033703;28;20437;-61
2022/08/11 04:16:46;;;;;;;5.30;4.90;;;16.70;99.90;;;;;;5030574;28;20433;-62
2022/08/11 04:19:30;;;;;;;4.80;4.50;;;16.70;99.90;;;;;;5006229;28;20541;-61
2022/08/11 04:22:34;;;;;;;8.67;4.63;;;16.70;99.90;;;;;;5032738;28;22326;-62
2022/08/11 04:25:37;;;;;;;4.93;4.53;;;16.80;99.90;;;;;;5025224;28;20495;-61
2022/08/11 04:28:46;;;;;;;7.07;4.60;;;16.70;99.90;;;;;;5033622;28;20448;-62
2022/08/11 04:31:55;;;;;;;4.50;4.20;;;16.80;99.90;;;;;;5031469;28;20491;-61
2022/08/11 04:34:39;;;;;;;4.70;4.30;;;16.80;99.90;;;;;;5029587;28;20538;-61
2022/08/11 04:37:33;;;;;;;5.03;4.73;;;16.80;99.90;;;;;;5032759;28;20470;-61
2022/08/11 04:40:23;;;;;;;5.40;5.00;;;16.90;99.90;;;;;;5032399;28;20440;-61
2022/08/11 04:43:19;;;;;;;7.23;5.17;;;16.90;99.90;;;;;;5032169;28;20444;-61
2022/08/11 04:46:12;;;;;;;5.07;4.60;;;17.00;99.90;;;;;;5022619;28;20437;-61
2022/08/11 05:07:44;;;;;;;5.13;4.73;;;17.80;99.90;;;;;;4991596;28;20476;-60
2022/08/11 05:10:28;;;;;;;5.50;5.10;;;17.90;99.90;;;;;;4988275;28;20434;-59
2022/08/11 05:27:09;;;;;;;6.63;6.03;;;18.10;99.90;;;;;;5018580;28;20465;-62
2022/08/11 05:35:49;;;;;;;5.43;5.07;;;19.30;99.90;;;;;;5030698;28;20455;-65
2022/08/11 05:58:02;;;;;;;5.17;4.77;;;20.90;97.70;;;;;;5029307;28;20447;-62
2022/08/11 06:00:29;;;;;;;5.17;4.73;;;21.10;97.50;;;;;;5028212;28;21162;-61
2022/08/11 06:02:59;;;;;;;5.77;5.17;;;21.30;96.80;;;;;;5026604;28;20536;-62
2022/08/11 06:05:35;;;;;;;7.93;6.80;;;21.40;96.60;;;;;;5028706;28;20468;-62
2022/08/11 06:08:02;;;;;;;7.70;6.93;;;21.60;94.70;;;;;;5028362;28;20640;-60
2022/08/11 06:10:36;;;;;;;5.30;4.80;;;21.90;94.40;;;;;;5029517;28;20506;-62
2022/08/11 06:13:04;;;;;;;5.60;5.10;;;22.10;93.50;;;;;;5030252;28;20916;-62
2022/08/11 06:15:42;;;;;;;5.97;5.40;;;22.20;91.80;;;;;;5030183;28;20487;-62
2022/08/11 06:18:10;;;;;;;5.60;5.07;;;22.30;91.80;;;;;;5024105;28;20433;-61
2022/08/11 06:20:45;;;;;;;5.60;5.17;;;22.40;90.90;;;;;;5026104;28;20491;-62
2022/08/11 06:23:13;;;;;;;4.33;3.70;;;22.50;90.40;;;;;;5023598;28;20536;-62
2022/08/11 06:25:39;;;;;;;5.23;4.80;;;22.70;89.30;;;;;;5025847;28;20456;-62
2022/08/11 06:28:07;;;;;;;5.37;4.97;;;22.90;88.80;;;;;;5027390;28;20449;-62
2022/08/11 06:30:41;;;;;;;7.87;4.43;;;23.00;86.80;;;;;;5023448;28;20869;-62
2022/08/11 06:33:17;;;;;;;4.80;4.43;;;23.00;85.40;;;;;;5027589;28;20467;-62
2022/08/11 06:35:52;;;;;;;5.00;4.47;;;22.90;84.50;;;;;;5029957;28;20511;-62
2022/08/11 06:38:51;;;;;;;5.33;4.80;;;22.90;85.50;;;;;;5025377;28;20428;-61
2022/08/11 06:41:29;;;;;;;5.87;5.37;;;23.10;84.20;;;;;;5023678;28;20437;-61
2022/08/11 06:44:19;;;;;;;5.07;4.50;;;23.40;83.20;;;;;;5029770;28;21066;-62
2022/08/11 06:46:50;;;;;;;4.80;4.40;;;23.40;81.60;;;;;;5030132;28;20445;-62
2022/08/11 06:52:06;;;;;;;5.37;4.43;;;23.80;79.80;;;;;;5029903;28;20440;-61
2022/08/11 06:54:35;;;;;;;5.50;5.03;;;23.90;79.00;;;;;;5029669;28;21047;-61
2022/08/11 07:02:41;;;;;;;5.10;4.60;;;24.00;77.50;;;;;;5030545;28;20511;-63
2022/08/11 07:05:19;;;;;;;5.57;5.20;;;23.90;78.30;;;;;;5029135;28;20452;-61
2022/08/11 07:15:40;;;;;;;5.00;4.60;;;23.90;76.70;;;;;;5028135;28;20428;-61
2022/08/11 07:17:22;;;;;;;4.90;4.50;;;24.50;75.00;;;;;;5026596;28;20850;-62
2022/08/11 07:31:40;;;;;;;4.23;3.80;;;24.90;71.90;;;;;;5028528;28;20494;-61
2022/08/11 07:34:14;;;;;;;4.93;4.43;;;25.10;70.60;;;;;;5027983;28;20472;-62
2022/08/11 07:36:44;;;;;;;5.40;4.87;;;25.30;70.10;;;;;;5030489;28;20441;-62
2022/08/11 07:39:17;;;;;;;5.30;4.80;;;25.60;69.90;;;;;;5029495;28;20930;-62
2022/08/11 07:41:44;;;;;;;4.93;4.63;;;25.70;68.80;;;;;;5032157;28;20472;-62
2022/08/11 07:44:11;;;;;;;5.03;4.20;;;25.50;68.60;;;;;;5034967;28;20961;-61
2022/08/11 07:52:29;;;;;;;5.53;4.03;;;25.80;67.70;;;;;;5033083;28;20981;-63
2022/08/11 07:54:59;;;;;;;5.33;4.70;;;25.90;66.90;;;;;;5032072;28;20500;-61
2022/08/11 08:19:30;;;;;;;5.03;4.67;;;28.40;59.50;;;;;;5028413;28;20447;-62
2022/08/11 08:21:56;;;;;;;4.90;4.50;;;28.80;58.80;;;;;;5028180;28;20991;-60
2022/08/11 08:24:22;;;;;;;5.10;4.13;;;28.90;58.50;;;;;;5027777;28;20515;-62
2022/08/11 08:26:58;;;;;;;4.60;4.20;;;29.00;58.50;;;;;;5029827;28;20445;-62
2022/08/11 08:32:15;;;;;;;4.70;4.30;;;29.00;57.60;;;;;;5029278;28;21019;-62
2022/08/11 08:34:41;;;;;;;5.27;4.77;;;29.30;57.10;;;;;;5033343;28;20464;-61
2022/08/11 08:37:07;;;;;;;5.10;4.70;;;29.40;56.40;;;;;;5029923;28;20848;-62
2022/08/11 08:39:36;;;;;;;4.57;4.37;;;29.60;56.40;;;;;;5030852;28;20524;-62
2022/08/11 08:42:06;;;;;;;4.17;3.87;;;29.90;55.60;;;;;;5031493;28;20768;-64
2022/08/11 08:44:34;;;;;;;4.97;4.47;;;30.20;54.60;;;;;;5031144;28;22404;-64
2022/08/11 08:47:04;;;;;;;4.60;4.03;;;30.30;53.60;;;;;;5031907;28;20933;-64
2022/08/11 08:49:37;;;;;;;5.30;4.30;;;30.00;53.60;;;;;;5032588;28;20535;-64
2022/08/11 08:52:05;;;;;;;3.97;3.67;;;30.10;53.50;;;;;;5030921;28;20451;-64
2022/08/11 08:54:37;;;;;;;4.60;4.20;;;29.90;52.20;;;;;;5030495;28;20483;-64
2022/08/11 08:57:05;;;;;;;4.50;4.13;;;29.30;52.20;;;;;;5029389;28;20886;-64
2022/08/11 08:59:34;;;;;;;4.53;4.13;;;29.00;52.40;;;;;;5024931;28;20429;-64
2022/08/11 09:02:02;;;;;;;4.67;3.90;;;29.20;52.50;;;;;;5032081;28;21003;-64
2022/08/11 09:04:28;;;;;;;3.87;3.67;;;29.00;52.40;;;;;;5029442;28;20492;-64
2022/08/11 09:06:57;;;;;;;4.30;4.00;;;29.10;52.30;;;;;;5030931;28;20802;-64
2022/08/11 09:09:23;;;;;;;4.27;3.90;;;29.10;52.30;;;;;;5030080;28;20440;-64
2022/08/11 09:11:50;;;;;;;4.70;4.40;;;29.50;51.90;;;;;;5032048;28;20436;-62
2022/08/11 09:14:17;;;;;;;4.30;3.90;;;29.70;51.70;;;;;;5031807;28;20482;-64
2022/08/11 09:16:43;;;;;;;7.23;4.50;;;29.60;51.40;;;;;;5029482;28;20528;-63
2022/08/11 09:19:09;;;;;;;3.93;3.63;;;30.00;51.30;;;;;;5027285;28;20441;-61
2022/08/11 09:21:39;;;;;;;4.40;3.83;;;30.30;50.80;;;;;;5029732;28;20474;-64
2022/08/11 09:27:02;;;;;;;5.00;3.43;;;30.30;49.50;;;;;;5027805;28;20456;-64
2022/08/11 09:29:30;;;;;;;4.27;3.87;;;30.40;49.80;;;;;;5028964;28;20456;-64
2022/08/11 09:31:56;;;;;;;3.80;3.50;;;30.80;49.40;;;;;;5029136;28;20441;-64
2022/08/11 09:34:23;;;;;;;4.60;3.90;;;31.10;48.60;;;;;;5026225;28;20476;-64
2022/08/11 09:42:22;;;;;;;4.67;4.30;;;32.20;46.80;;;;;;5028489;28;20536;-64
2022/08/11 09:44:48;;;;;;;4.23;3.93;;;32.10;46.00;;;;;;5029592;28;20875;-63
2022/08/11 09:47:24;;;;;;;8.60;4.23;;;32.30;46.30;;;;;;5029043;28;20456;-65
2022/08/11 09:49:53;;;;;;;3.40;3.20;;;32.90;45.40;;;;;;5028295;28;20467;-65
2022/08/11 09:52:21;;;;;;;3.27;3.07;;;32.70;43.70;;;;;;5030353;28;20437;-64
2022/08/11 09:54:48;;;;;;;4.00;3.80;;;32.20;43.40;;;;;;5028761;28;20488;-63
2022/08/11 10:00:03;;;;;;;3.70;3.50;;;32.80;43.50;;;;;;5027903;28;20460;-64
2022/08/11 10:02:29;;;;;;;3.70;3.50;;;33.60;42.50;;;;;;5030090;28;20445;-65
2022/08/11 10:07:49;;;;;;;3.37;3.10;;;33.90;41.10;;;;;;5027766;28;20498;-64
2022/08/11 10:10:16;;;;;;;4.23;3.80;;;34.70;41.20;;;;;;5026383;28;20434;-63
2022/08/11 10:13:07;;;;;;;4.00;3.70;;;35.10;39.80;;;;;;5030024;28;21159;-65
2022/08/11 10:15:37;;;;;;;7.83;3.77;;;34.50;40.10;;;;;;5024678;28;20465;-63
2022/08/11 10:18:41;;;;;;;4.07;3.80;;;34.20;39.90;;;;;;5024264;28;20962;-65
2022/08/11 10:21:14;;;;;;;4.20;3.90;;;34.10;40.30;;;;;;5027605;28;20437;-64
2022/08/11 10:34:46;;;;;;;4.40;4.07;;;36.10;37.20;;;;;;5029884;28;20511;-63
2022/08/11 10:37:14;;;;;;;5.73;4.10;;;35.90;36.40;;;;;;5029912;28;20437;-63
2022/08/11 10:39:40;;;;;;;5.57;3.40;;;35.30;36.60;;;;;;5029406;28;20524;-64
2022/08/11 10:44:54;;;;;;;3.50;3.17;;;36.60;36.10;;;;;;5028883;28;20487;-64
2022/08/11 10:47:38;;;;;;;3.40;3.20;;;37.60;34.90;;;;;;5029768;28;20449;-64
2022/08/11 10:58:48;;;;;;;4.60;4.00;;;39.70;34.10;;;;;;5028643;28;20451;-64
2022/08/11 11:01:21;;;;;;;3.53;3.33;;;40.70;33.50;;;;;;5023844;28;20439;-65
2022/08/11 11:03:51;;;;;;;3.53;3.23;;;40.80;33.20;;;;;;5026392;28;20445;-63
2022/08/11 11:06:31;;;;;;;3.13;2.80;;;40.00;32.90;;;;;;5024645;28;20970;-64
2022/08/11 11:09:10;;;;;;;4.87;3.10;;;39.80;33.20;;;;;;5028951;28;20440;-65
2022/08/11 11:20:09;;;;;;;4.60;4.20;;;38.30;34.30;;;;;;5025790;28;20443;-64
2022/08/11 11:22:38;;;;;;;4.53;3.57;;;39.30;34.20;;;;;;5029025;28;20579;-65
2022/08/11 11:25:20;;;;;;;3.40;3.20;;;39.50;32.90;;;;;;5026461;28;20503;-64
2022/08/11 11:28:22;;;;;;;3.33;3.03;;;39.00;33.40;;;;;;5030474;28;20460;-64
2022/08/11 11:31:11;;;;;;;3.33;3.13;;;39.30;32.40;;;;;;5029901;28;20444;-64
2022/08/11 11:33:55;;;;;;;3.40;3.20;;;38.50;32.30;;;;;;5023216;28;20451;-65
2022/08/11 11:36:35;;;;;;;3.40;3.10;;;39.30;32.20;;;;;;5027492;28;20494;-65
2022/08/11 11:39:01;;;;;;;3.23;3.03;;;38.80;32.40;;;;;;5028994;28;20444;-63
2022/08/11 11:41:27;;;;;;;3.10;2.73;;;38.40;32.20;;;;;;5029796;28;20606;-65
2022/08/11 11:43:55;;;;;;;3.27;2.90;;;39.20;32.10;;;;;;5027689;28;20253;-65
2022/08/11 11:46:23;;;;;;;4.37;3.20;;;41.20;31.90;;;;;;5026065;28;20425;-65
2022/08/11 11:48:50;;;;;;;3.70;3.50;;;42.20;30.80;;;;;;5028745;28;20449;-64
2022/08/11 11:51:16;;;;;;;3.10;2.90;;;42.00;30.00;;;;;;5029129;28;20556;-63
2022/08/11 11:53:44;;;;;;;3.10;2.90;;;41.10;30.20;;;;;;5027033;28;20452;-62
2022/08/11 11:56:11;;;;;;;3.00;2.80;;;40.40;31.10;;;;;;5019679;28;20182;-63
2022/08/11 12:01:24;;;;;;;3.23;2.93;;;40.40;30.10;;;;;;5025592;28;20457;-64
2022/08/11 12:03:52;;;;;;;4.27;3.97;;;39.10;30.80;;;;;;5027458;28;20475;-64
2022/08/11 12:06:21;;;;;;;3.37;3.17;;;39.50;31.30;;;;;;5030098;28;20478;-63
2022/08/11 12:08:49;;;;;;;2.83;2.73;;;39.30;30.80;;;;;;5028999;28;20861;-64
2022/08/11 12:14:02;;;;;;;3.63;2.90;;;41.20;30.30;;;;;;5032022;28;20467;-64
2022/08/11 12:16:29;;;;;;;3.70;2.80;;;41.90;29.50;;;;;;5029792;28;20525;-63
2022/08/11 12:18:58;;;;;;;2.77;2.57;;;42.10;29.40;;;;;;5032078;28;20445;-64
2022/08/11 12:21:26;;;;;;;3.43;3.10;;;42.70;29.20;;;;;;5028654;28;20811;-64
2022/08/11 12:29:16;;;;;;;2.50;2.40;;;42.10;28.70;;;;;;5025686;28;20451;-64
2022/08/11 12:31:42;;;;;;;3.37;3.10;;;42.30;28.50;;;;;;5028501;28;20479;-63
2022/08/11 12:34:10;;;;;;;3.67;2.60;;;42.30;28.10;;;;;;5027955;28;20468;-64
2022/08/11 12:36:38;;;;;;;5.87;3.47;;;41.60;28.70;;;;;;5029170;28;20448;-64
2022/08/11 12:39:07;;;;;;;3.53;3.33;;;41.10;28.60;;;;;;5027547;28;20506;-63
2022/08/11 12:47:07;;;;;;;3.87;2.90;;;40.90;28.60;;;;;;5029346;28;20531;-64
2022/08/11 12:52:28;;;;;;;2.93;2.73;;;44.30;23.60;;;;;;5027698;28;20443;-64
2022/08/11 12:55:02;;;;;;;3.97;3.40;;;45.30;22.80;;;;;;5031946;28;20553;-62
2022/08/11 13:05:59;;;;;;;3.63;3.30;;;41.50;23.70;;;;;;5024780;28;20886;-62
2022/08/11 13:08:28;;;;;;;3.20;3.00;;;41.60;23.80;;;;;;5029832;28;20874;-64
2022/08/11 13:13:42;;;;;;;3.27;3.07;;;43.10;23.40;;;;;;5029411;28;20447;-63
2022/08/11 13:16:09;;;;;;;3.13;2.80;;;44.00;22.70;;;;;;5031097;28;20543;-62
2022/08/11 13:18:36;;;;;;;3.20;2.90;;;43.60;22.60;;;;;;5031227;28;20995;-63
2022/08/11 13:21:02;;;;;;;4.20;3.10;;;42.60;23.00;;;;;;5025436;28;20531;-62
2022/08/11 13:23:28;;;;;;;2.70;2.50;;;42.30;23.20;;;;;;5026612;28;20549;-62
2022/08/11 13:25:55;;;;;;;3.10;2.90;;;42.40;23.10;;;;;;5024788;28;20248;-62
2022/08/11 13:28:22;;;;;;;3.10;2.90;;;42.30;23.10;;;;;;5030745;28;20445;-62
2022/08/11 13:33:39;;;;;;;3.73;3.40;;;39.90;24.00;;;;;;5025674;28;20468;-63
2022/08/11 13:36:06;;;;;;;4.40;3.13;;;40.40;24.10;;;;;;5032030;28;20444;-62
2022/08/11 13:38:32;;;;;;;2.97;2.77;;;39.70;24.00;;;;;;5024021;28;20526;-63
2022/08/11 13:40:58;;;;;;;3.80;3.50;;;38.50;24.20;;;;;;5030350;28;20444;-62
2022/08/11 13:43:24;;;;;;;3.47;3.17;;;38.30;24.40;;;;;;5026656;28;20526;-62
2022/08/11 13:46:17;;;;;;;5.63;3.40;;;38.60;24.50;;;;;;5030513;28;20206;-63
2022/08/11 13:48:37;;;;;;;3.33;3.13;;;38.20;24.60;;;;;;5023803;28;20856;-62
2022/08/11 13:53:47;;;;;;;3.83;3.53;;;36.00;25.90;;;;;;5031500;28;20502;-62
2022/08/11 13:56:13;;;;;;;3.10;2.90;;;35.00;26.40;;;;;;5026815;28;20864;-62
2022/08/11 13:58:39;;;;;;;3.40;3.20;;;34.10;27.00;;;;;;5029838;28;20194;-62
2022/08/11 14:01:06;;;;;;;3.27;3.07;;;33.30;27.50;;;;;;5029039;28;20186;-63
2022/08/11 14:03:33;;;;;;;2.87;2.63;;;32.70;27.50;;;;;;5029209;28;20292;-63
2022/08/11 14:06:02;;;;;;;3.53;3.23;;;32.10;28.50;;;;;;5026223;28;20989;-63
2022/08/11 14:08:33;;;;;;;3.37;3.17;;;31.60;28.40;;;;;;5030871;28;20498;-63
2022/08/11 14:13:49;;;;;;;3.83;3.50;;;31.50;28.60;;;;;;5026162;28;20527;-63
2022/08/11 14:16:32;;;;;;;3.70;3.27;;;31.80;28.60;;;;;;5025659;28;20860;-63
2022/08/11 14:19:03;;;;;;;3.33;3.13;;;31.80;28.70;;;;;;5023855;28;20523;-62
2022/08/11 14:24:22;;;;;;;4.10;3.37;;;31.50;28.80;;;;;;5024473;28;20493;-63
2022/08/11 14:26:50;;;;;;;3.20;3.00;;;31.40;28.80;;;;;;5022285;28;20464;-62
2022/08/11 14:29:19;;;;;;;4.47;2.90;;;31.50;29.30;;;;;;5026351;28;20454;-63
2022/08/11 14:31:49;;;;;;;3.47;3.17;;;31.50;29.00;;;;;;5029020;28;20540;-63
2022/08/11 14:34:20;;;;;;;3.60;3.00;;;31.10;28.90;;;;;;5030567;28;20473;-63
2022/08/11 14:36:53;;;;;;;3.37;3.17;;;30.90;29.60;;;;;;5026598;28;20492;-63
2022/08/11 14:39:25;;;;;;;3.80;2.90;;;30.70;29.30;;;;;;5030383;28;20444;-63
2022/08/11 14:47:36;;;;;;;3.20;3.00;;;30.60;29.50;;;;;;5025389;28;20498;-62
2022/08/11 14:50:03;;;;;;;3.57;3.27;;;30.50;29.30;;;;;;5029223;28;20441;-63
2022/08/11 14:52:33;;;;;;;3.70;3.23;;;30.40;29.70;;;;;;5029879;28;20437;-63
2022/08/11 14:57:44;;;;;;;5.80;2.70;;;30.20;29.70;;;;;;5024867;28;20543;-63
2022/08/11 15:00:17;;;;;;;3.13;2.93;;;30.10;29.80;;;;;;5026720;28;20532;-63
2022/08/11 15:05:32;;;;;;;3.70;3.40;;;30.10;29.70;;;;;;5031263;28;20521;-63
2022/08/11 15:07:58;;;;;;;5.30;2.87;;;30.00;29.90;;;;;;5029699;28;20452;-62
2022/08/11 15:10:25;;;;;;;3.80;3.50;;;29.90;29.60;;;;;;5024624;28;20442;-62
2022/08/11 15:12:51;;;;;;;3.43;3.13;;;29.80;29.90;;;;;;5028831;28;20451;-63
2022/08/11 15:18:06;;;;;;;3.07;2.87;;;29.50;30.20;;;;;;5021625;28;20461;-62
2022/08/11 15:26:09;;;;;;;3.10;2.90;;;29.40;30.40;;;;;;5027613;28;20579;-63
2022/08/11 15:39:33;;;;;;;3.43;3.13;;;29.10;29.90;;;;;;5018187;28;20531;-62
2022/08/11 15:47:56;;;;;;;4.43;3.20;;;29.00;30.10;;;;;;5034216;28;20498;-62
2022/08/11 15:50:27;;;;;;;2.93;2.73;;;28.90;30.20;;;;;;5019147;28;20789;-63
2022/08/11 15:53:06;;;;;;;3.00;2.70;;;28.80;31.00;;;;;;5033992;28;20443;-63
2022/08/11 15:55:34;;;;;;;3.47;3.17;;;28.70;31.50;;;;;;5033947;28;20464;-62
2022/08/11 16:06:27;;;;;;;2.90;2.70;;;28.50;32.10;;;;;;5027538;28;20579;-63
2022/08/11 16:08:55;;;;;;;3.20;3.00;;;28.50;32.60;;;;;;5030552;28;20444;-63
2022/08/11 16:11:22;;;;;;;3.30;3.10;;;28.40;33.00;;;;;;5033456;28;20505;-63
2022/08/11 16:16:37;;;;;;;3.10;2.80;;;28.30;32.90;;;;;;5031616;28;20452;-63
2022/08/11 16:19:07;;;;;;;4.37;3.97;;;28.30;33.30;;;;;;5030460;28;20807;-63
2022/08/11 16:21:34;;;;;;;3.50;3.20;;;28.20;33.10;;;;;;5027106;28;20443;-63
2022/08/11 16:24:04;;;;;;;3.57;3.30;;;28.20;33.20;;;;;;5030835;28;20475;-63
2022/08/11 16:26:31;;;;;;;3.30;3.00;;;28.20;33.30;;;;;;5028111;28;20528;-63
2022/08/11 16:29:00;;;;;;;3.90;2.63;;;28.20;33.60;;;;;;5025585;28;20422;-63
2022/08/11 16:31:27;;;;;;;3.90;3.60;;;28.30;33.80;;;;;;5033700;28;20945;-64
2022/08/11 16:33:54;;;;;;;4.80;3.03;;;28.20;33.70;;;;;;5029462;28;20468;-63
2022/08/11 16:39:08;;;;;;;3.17;2.97;;;28.10;33.80;;;;;;5025543;28;20427;-64
2022/08/11 16:47:15;;;;;;;3.20;3.00;;;27.90;34.00;;;;;;5027631;28;20436;-64
2022/08/11 16:49:45;;;;;;;3.37;3.07;;;27.80;34.10;;;;;;5030815;28;20443;-63
2022/08/11 16:52:11;;;;;;;3.10;2.90;;;27.70;33.80;;;;;;5028226;28;20440;-63
2022/08/11 16:54:38;;;;;;;3.40;3.10;;;27.70;34.10;;;;;;5025959;28;21042;-63
2022/08/11 16:59:53;;;;;;;3.07;2.90;;;27.60;33.90;;;;;;5025347;28;20435;-64
2022/08/11 17:14:13;;;;;;;4.30;3.10;;;27.50;34.10;;;;;;5024577;28;20445;-64
2022/08/11 17:16:41;;;;;;;3.87;3.53;;;27.50;34.10;;;;;;5022298;28;20958;-64
2022/08/11 17:19:14;;;;;;;3.00;2.80;;;27.40;34.00;;;;;;5029726;28;20441;-64
2022/08/11 17:24:31;;;;;;;3.03;2.73;;;27.30;34.40;;;;;;5032023;28;20553;-64
2022/08/11 17:26:57;;;;;;;3.00;2.80;;;27.30;34.20;;;;;;5031857;28;20438;-64
2022/08/11 17:29:36;;;;;;;4.67;2.87;;;27.20;34.10;;;;;;5031588;28;20429;-64
2022/08/11 17:37:40;;;;;;;4.43;3.50;;;27.10;34.90;;;;;;5028580;28;20454;-64
2022/08/11 17:40:11;;;;;;;5.20;3.17;;;27.00;34.80;;;;;;5028620;28;20446;-64
2022/08/11 17:48:24;;;;;;;3.33;3.07;;;26.90;35.10;;;;;;5032245;28;20867;-64
2022/08/11 17:50:53;;;;;;;3.57;3.27;;;26.90;35.20;;;;;;5025482;28;20439;-63
2022/08/11 18:01:37;;;;;;;3.20;3.00;;;26.70;35.70;;;;;;5026239;28;20486;-64
2022/08/11 18:04:06;;;;;;;3.70;3.40;;;26.60;35.90;;;;;;5029183;28;20465;-64
2022/08/11 18:06:32;;;;;;;6.00;3.47;;;26.50;35.90;;;;;;5027074;28;20464;-64
